Granton, WI

8:53 PM CST on November 26, 2014 (GMT -0600)
Marshfield Municipal | Change Station
CLOSE
Current Station
Airport
Location: Marshfield,
Elevation: 1276 ft
Nearby Weather Stations

Elev 1276 ft 44.64 °N, 90.19 °W | Updated 9 minutes ago

Overcast
Overcast
20 °F
Feels Like 11 °F
N
7
Wind Variable Wind from NW

Today
High -- | Low -- °F
--% Chance of Precip.
Yesterday
High -- | Low -- °F
Precip. -- in
7:12 AM 4:25 PM
Waxing Crescent, 25% visible
Pressure 30.17 in
Visibility 9.0 miles
Clouds Mostly Cloudy 2600 ft
Overcast 8500 ft
Windchill 11 °F
Dew Point 17 °F
Humidity 89%
Rainfall 0.00 in
Snow Depth Not available.
UV 0 out of 12
Pollen .10 out of 12
Air Quality Not available.
Flu Activity Not available.
SPECI KMFI 270244Z AUTO 32006KT 9SM BKN026 OVC085 M07/M08 A3017 RMK AO2 SNE09 P0000 T10671083

More Conditions Fewer Conditions

Pressure 30.17 in
Visibility 9.0 miles
Clouds Mostly Cloudy 2600 ft
Overcast 8500 ft
Windchill 11 °F
Dew Point 17 °F
Humidity 89%
Rainfall 0.00 in
Snow Depth Not available.
UV 0 out of 12
Pollen .10 out of 12
Air Quality Not available.
Flu Activity Not available.
SPECI KMFI 270244Z AUTO 32006KT 9SM BKN026 OVC085 M07/M08 A3017 RMK AO2 SNE09 P0000 T10671083

More Conditions Fewer Conditions

10-Day Weather Forecast

Almanac

Astronomy

Nov. 26, 2014 Rise Set
Actual Time
Civil Twilight
Nautical Twilight
Astronomical Twilight
Moon
Length of Visible Light
Length of Day
Tomorrow will be .
, % of the Moon is Illuminated

Today's Extremes

State Highs State Lows

Community

WunderPhotos

Upload Photos

1,773,949 photos uploaded!

WunderBlogs® & News

Nearby

Air Quality

  Air Quality AQ Index Pollutant
Not available.

Snow Depth

Station Depth Elevation

Earthquake Activity

City Distance Mag. Time & Date
Minimum magnitude displayed is 2.5.

Coastal Water Temperatures

Place Temperature

Nearby Weather Stations